sensor_id;sensor_type;location;lat;lon;timestamp;temperature;humidity
18450;DHT22;9354;50.194;7.690;2024-02-14T00:00:56;7.10;99.90
18450;DHT22;9354;50.194;7.690;2024-02-14T00:03:24;7.10;99.90
18450;DHT22;9354;50.194;7.690;2024-02-14T00:05:51;7.10;99.90
18450;DHT22;9354;50.194;7.690;2024-02-14T00:08:19;7.10;99.90
18450;DHT22;9354;50.194;7.690;2024-02-14T00:10:46;7.10;99.90
18450;DHT22;9354;50.194;7.690;2024-02-14T00:13:14;7.10;99.90
18450;DHT22;9354;50.194;7.690;2024-02-14T00:15:44;7.10;99.90
18450;DHT22;9354;50.194;7.690;2024-02-14T00:18:13;7.10;99.90
18450;DHT22;9354;50.194;7.690;2024-02-14T00:20:41;7.10;99.90
18450;DHT22;9354;50.194;7.690;2024-02-14T00:23:08;7.10;99.90
18450;DHT22;9354;50.194;7.690;2024-02-14T00:25:37;7.10;99.90
18450;DHT22;9354;50.194;7.690;2024-02-14T00:28:05;7.10;99.90
18450;DHT22;9354;50.194;7.690;2024-02-14T00:30:33;7.10;99.90
18450;DHT22;9354;50.194;7.690;2024-02-14T00:33:00;7.10;99.90
18450;DHT22;9354;50.194;7.690;2024-02-14T00:35:29;7.10;99.90
18450;DHT22;9354;50.194;7.690;2024-02-14T00:37:57;7.20;99.90
18450;DHT22;9354;50.194;7.690;2024-02-14T00:40:24;7.20;99.90
18450;DHT22;9354;50.194;7.690;2024-02-14T00:42:51;7.20;99.90
18450;DHT22;9354;50.194;7.690;2024-02-14T00:45:19;7.20;99.90
18450;DHT22;9354;50.194;7.690;2024-02-14T00:47:46;7.20;99.90
18450;DHT22;9354;50.194;7.690;2024-02-14T00:50:13;7.20;99.90
18450;DHT22;9354;50.194;7.690;2024-02-14T00:52:42;7.30;99.90
18450;DHT22;9354;50.194;7.690;2024-02-14T00:55:10;7.30;99.90
18450;DHT22;9354;50.194;7.690;2024-02-14T00:57:38;7.30;99.90
18450;DHT22;9354;50.194;7.690;2024-02-14T01:00:07;7.40;99.90
18450;DHT22;9354;50.194;7.690;2024-02-14T01:02:35;7.40;99.90
18450;DHT22;9354;50.194;7.690;2024-02-14T01:05:03;7.40;99.90
18450;DHT22;9354;50.194;7.690;2024-02-14T01:07:30;7.40;99.90
18450;DHT22;9354;50.194;7.690;2024-02-14T01:09:59;7.40;99.90
18450;DHT22;9354;50.194;7.690;2024-02-14T01:12:26;7.40;99.90
18450;DHT22;9354;50.194;7.690;2024-02-14T01:14:55;7.40;99.90
18450;DHT22;9354;50.194;7.690;2024-02-14T01:17:23;7.40;99.90
18450;DHT22;9354;50.194;7.690;2024-02-14T01:19:50;7.40;99.90
18450;DHT22;9354;50.194;7.690;2024-02-14T01:22:18;7.40;99.90
18450;DHT22;9354;50.194;7.690;2024-02-14T01:24:45;7.40;99.90
18450;DHT22;9354;50.194;7.690;2024-02-14T01:27:14;7.40;99.90
18450;DHT22;9354;50.194;7.690;2024-02-14T01:29:42;7.30;99.90
18450;DHT22;9354;50.194;7.690;2024-02-14T01:32:10;7.30;99.90
18450;DHT22;9354;50.194;7.690;2024-02-14T01:34:37;7.30;99.90
18450;DHT22;9354;50.194;7.690;2024-02-14T01:37:05;7.30;99.90
18450;DHT22;9354;50.194;7.690;2024-02-14T01:39:32;7.20;99.90
18450;DHT22;9354;50.194;7.690;2024-02-14T01:42:00;7.20;99.90
18450;DHT22;9354;50.194;7.690;2024-02-14T01:44:29;7.20;99.90
18450;DHT22;9354;50.194;7.690;2024-02-14T01:46:56;7.20;99.90
18450;DHT22;9354;50.194;7.690;2024-02-14T01:49:24;7.20;99.90
18450;DHT22;9354;50.194;7.690;2024-02-14T01:51:54;7.20;99.90
18450;DHT22;9354;50.194;7.690;2024-02-14T01:54:22;7.20;99.90
18450;DHT22;9354;50.194;7.690;2024-02-14T01:56:50;7.20;99.90
18450;DHT22;9354;50.194;7.690;2024-02-14T01:59:18;7.20;99.90
18450;DHT22;9354;50.194;7.690;2024-02-14T02:01:48;7.10;99.90
18450;DHT22;9354;50.194;7.690;2024-02-14T02:04:15;7.10;99.90
18450;DHT22;9354;50.194;7.690;2024-02-14T02:06:43;7.10;99.90
18450;DHT22;9354;50.194;7.690;2024-02-14T02:09:10;7.10;99.90
18450;DHT22;9354;50.194;7.690;2024-02-14T02:11:45;7.10;99.90
18450;DHT22;9354;50.194;7.690;2024-02-14T02:14:15;7.10;99.90
18450;DHT22;9354;50.194;7.690;2024-02-14T02:16:42;7.20;99.90
18450;DHT22;9354;50.194;7.690;2024-02-14T02:19:12;7.10;99.90
18450;DHT22;9354;50.194;7.690;2024-02-14T02:21:42;7.10;99.90
18450;DHT22;9354;50.194;7.690;2024-02-14T02:24:11;7.10;99.90
18450;DHT22;9354;50.194;7.690;2024-02-14T02:26:38;7.10;99.90
18450;DHT22;9354;50.194;7.690;2024-02-14T02:29:06;7.20;99.90
18450;DHT22;9354;50.194;7.690;2024-02-14T02:31:33;7.20;99.90
18450;DHT22;9354;50.194;7.690;2024-02-14T02:34:01;7.20;99.90
18450;DHT22;9354;50.194;7.690;2024-02-14T02:36:28;7.20;99.90
18450;DHT22;9354;50.194;7.690;2024-02-14T02:38:57;7.20;99.90
18450;DHT22;9354;50.194;7.690;2024-02-14T02:41:28;7.20;99.90
18450;DHT22;9354;50.194;7.690;2024-02-14T02:43:55;7.20;99.90
18450;DHT22;9354;50.194;7.690;2024-02-14T02:46:22;7.20;99.90
18450;DHT22;9354;50.194;7.690;2024-02-14T02:48:51;7.20;99.90
18450;DHT22;9354;50.194;7.690;2024-02-14T02:51:20;7.20;99.90
18450;DHT22;9354;50.194;7.690;2024-02-14T02:53:48;7.20;99.90
18450;DHT22;9354;50.194;7.690;2024-02-14T02:56:15;7.20;99.90
18450;DHT22;9354;50.194;7.690;2024-02-14T02:58:44;7.20;99.90
18450;DHT22;9354;50.194;7.690;2024-02-14T03:01:13;7.20;99.90
18450;DHT22;9354;50.194;7.690;2024-02-14T03:03:40;7.20;99.90
18450;DHT22;9354;50.194;7.690;2024-02-14T03:06:08;7.20;99.90
18450;DHT22;9354;50.194;7.690;2024-02-14T03:08:36;7.20;99.90
18450;DHT22;9354;50.194;7.690;2024-02-14T03:11:05;7.20;99.90
18450;DHT22;9354;50.194;7.690;2024-02-14T03:13:32;7.20;99.90
18450;DHT22;9354;50.194;7.690;2024-02-14T03:16:03;7.20;99.90
18450;DHT22;9354;50.194;7.690;2024-02-14T03:18:31;7.30;99.90
18450;DHT22;9354;50.194;7.690;2024-02-14T03:20:59;7.30;99.90
18450;DHT22;9354;50.194;7.690;2024-02-14T03:23:26;7.30;99.90
18450;DHT22;9354;50.194;7.690;2024-02-14T03:25:54;7.30;99.90
18450;DHT22;9354;50.194;7.690;2024-02-14T03:28:21;7.30;99.90
18450;DHT22;9354;50.194;7.690;2024-02-14T03:30:49;7.30;99.90
18450;DHT22;9354;50.194;7.690;2024-02-14T03:33:18;7.30;99.90
18450;DHT22;9354;50.194;7.690;2024-02-14T03:35:45;7.30;99.90
18450;DHT22;9354;50.194;7.690;2024-02-14T03:38:13;7.40;99.90
18450;DHT22;9354;50.194;7.690;2024-02-14T03:40:51;7.40;99.90
18450;DHT22;9354;50.194;7.690;2024-02-14T03:43:18;7.40;99.90
18450;DHT22;9354;50.194;7.690;2024-02-14T03:45:46;7.40;99.90
18450;DHT22;9354;50.194;7.690;2024-02-14T03:48:13;7.40;99.90
18450;DHT22;9354;50.194;7.690;2024-02-14T03:50:42;7.40;99.90
18450;DHT22;9354;50.194;7.690;2024-02-14T03:53:09;7.40;99.90
18450;DHT22;9354;50.194;7.690;2024-02-14T03:55:38;7.40;99.90
18450;DHT22;9354;50.194;7.690;2024-02-14T03:58:05;7.40;99.90
18450;DHT22;9354;50.194;7.690;2024-02-14T04:00:34;7.40;99.90
18450;DHT22;9354;50.194;7.690;2024-02-14T04:03:02;7.40;99.90
18450;DHT22;9354;50.194;7.690;2024-02-14T04:05:30;7.30;99.90
18450;DHT22;9354;50.194;7.690;2024-02-14T04:07:59;7.30;99.90
18450;DHT22;9354;50.194;7.690;2024-02-14T04:10:26;7.30;99.90
18450;DHT22;9354;50.194;7.690;2024-02-14T04:12:54;7.30;99.90
18450;DHT22;9354;50.194;7.690;2024-02-14T04:15:21;7.30;99.90
18450;DHT22;9354;50.194;7.690;2024-02-14T04:17:48;7.30;99.90
18450;DHT22;9354;50.194;7.690;2024-02-14T04:20:16;7.30;99.90
18450;DHT22;9354;50.194;7.690;2024-02-14T04:22:44;7.30;99.90
18450;DHT22;9354;50.194;7.690;2024-02-14T04:25:12;7.30;99.90
18450;DHT22;9354;50.194;7.690;2024-02-14T04:27:40;7.30;99.90
18450;DHT22;9354;50.194;7.690;2024-02-14T04:30:08;7.30;99.90
18450;DHT22;9354;50.194;7.690;2024-02-14T04:32:36;7.30;99.90
18450;DHT22;9354;50.194;7.690;2024-02-14T04:35:04;7.30;99.90
18450;DHT22;9354;50.194;7.690;2024-02-14T04:37:31;7.30;99.90
18450;DHT22;9354;50.194;7.690;2024-02-14T04:39:59;7.30;99.90
18450;DHT22;9354;50.194;7.690;2024-02-14T04:42:28;7.30;99.90
18450;DHT22;9354;50.194;7.690;2024-02-14T04:44:55;7.30;99.90
18450;DHT22;9354;50.194;7.690;2024-02-14T04:47:22;7.30;99.90
18450;DHT22;9354;50.194;7.690;2024-02-14T04:49:50;7.30;99.90
18450;DHT22;9354;50.194;7.690;2024-02-14T04:52:18;7.30;99.90
18450;DHT22;9354;50.194;7.690;2024-02-14T04:54:45;7.20;99.90
18450;DHT22;9354;50.194;7.690;2024-02-14T04:57:12;7.20;99.90
18450;DHT22;9354;50.194;7.690;2024-02-14T04:59:42;7.20;99.90
18450;DHT22;9354;50.194;7.690;2024-02-14T05:02:09;7.20;99.90
18450;DHT22;9354;50.194;7.690;2024-02-14T05:04:36;7.10;99.90
18450;DHT22;9354;50.194;7.690;2024-02-14T05:07:05;7.10;99.90
18450;DHT22;9354;50.194;7.690;2024-02-14T05:09:32;7.10;99.90
18450;DHT22;9354;50.194;7.690;2024-02-14T05:12:00;7.10;99.90
18450;DHT22;9354;50.194;7.690;2024-02-14T05:14:28;7.10;99.90
18450;DHT22;9354;50.194;7.690;2024-02-14T05:16:58;7.10;99.90
18450;DHT22;9354;50.194;7.690;2024-02-14T05:19:27;7.10;99.90
18450;DHT22;9354;50.194;7.690;2024-02-14T05:21:55;7.10;99.90
18450;DHT22;9354;50.194;7.690;2024-02-14T05:24:22;7.10;99.90
18450;DHT22;9354;50.194;7.690;2024-02-14T05:26:53;7.10;99.90
18450;DHT22;9354;50.194;7.690;2024-02-14T05:29:20;7.10;99.90
18450;DHT22;9354;50.194;7.690;2024-02-14T05:31:48;7.10;99.90
18450;DHT22;9354;50.194;7.690;2024-02-14T05:34:17;7.20;99.90
18450;DHT22;9354;50.194;7.690;2024-02-14T05:36:44;7.10;99.90
18450;DHT22;9354;50.194;7.690;2024-02-14T05:39:13;7.10;99.90
18450;DHT22;9354;50.194;7.690;2024-02-14T05:41:41;7.10;99.90
18450;DHT22;9354;50.194;7.690;2024-02-14T05:44:09;7.10;99.90
18450;DHT22;9354;50.194;7.690;2024-02-14T05:46:36;7.10;99.90
18450;DHT22;9354;50.194;7.690;2024-02-14T05:49:04;7.20;99.90
18450;DHT22;9354;50.194;7.690;2024-02-14T05:51:33;7.20;99.90
18450;DHT22;9354;50.194;7.690;2024-02-14T05:54:01;7.20;99.90
18450;DHT22;9354;50.194;7.690;2024-02-14T05:56:28;7.20;99.90
18450;DHT22;9354;50.194;7.690;2024-02-14T05:58:55;7.20;99.90
18450;DHT22;9354;50.194;7.690;2024-02-14T06:01:23;7.20;99.90
18450;DHT22;9354;50.194;7.690;2024-02-14T06:03:50;7.20;99.90
18450;DHT22;9354;50.194;7.690;2024-02-14T06:06:17;7.20;99.90
18450;DHT22;9354;50.194;7.690;2024-02-14T06:08:46;7.20;99.90
18450;DHT22;9354;50.194;7.690;2024-02-14T06:11:14;7.20;99.90
18450;DHT22;9354;50.194;7.690;2024-02-14T06:13:42;7.20;99.90
18450;DHT22;9354;50.194;7.690;2024-02-14T06:16:09;7.20;99.90
18450;DHT22;9354;50.194;7.690;2024-02-14T06:18:37;7.20;99.90
18450;DHT22;9354;50.194;7.690;2024-02-14T06:21:05;7.20;99.90
18450;DHT22;9354;50.194;7.690;2024-02-14T06:23:33;7.30;99.90
18450;DHT22;9354;50.194;7.690;2024-02-14T06:26:04;7.30;99.90
18450;DHT22;9354;50.194;7.690;2024-02-14T06:28:32;7.30;99.90
18450;DHT22;9354;50.194;7.690;2024-02-14T06:30:59;7.30;99.90
18450;DHT22;9354;50.194;7.690;2024-02-14T06:33:27;7.40;99.90
18450;DHT22;9354;50.194;7.690;2024-02-14T06:35:54;7.40;99.90
18450;DHT22;9354;50.194;7.690;2024-02-14T06:38:22;7.50;99.90
18450;DHT22;9354;50.194;7.690;2024-02-14T06:40:49;7.50;99.90
18450;DHT22;9354;50.194;7.690;2024-02-14T06:43:18;7.50;99.90
18450;DHT22;9354;50.194;7.690;2024-02-14T06:45:46;7.60;99.90
18450;DHT22;9354;50.194;7.690;2024-02-14T06:48:13;7.60;99.90
18450;DHT22;9354;50.194;7.690;2024-02-14T06:50:41;7.60;99.90
18450;DHT22;9354;50.194;7.690;2024-02-14T06:53:08;7.60;99.90
18450;DHT22;9354;50.194;7.690;2024-02-14T06:55:35;7.60;99.90
18450;DHT22;9354;50.194;7.690;2024-02-14T06:58:03;7.60;99.90
18450;DHT22;9354;50.194;7.690;2024-02-14T07:00:33;7.60;99.90
18450;DHT22;9354;50.194;7.690;2024-02-14T07:03:01;7.60;99.90
18450;DHT22;9354;50.194;7.690;2024-02-14T07:05:28;7.60;99.90
18450;DHT22;9354;50.194;7.690;2024-02-14T07:07:56;7.60;99.90
18450;DHT22;9354;50.194;7.690;2024-02-14T07:10:23;7.60;99.90
18450;DHT22;9354;50.194;7.690;2024-02-14T07:12:51;7.60;99.90
18450;DHT22;9354;50.194;7.690;2024-02-14T07:15:18;7.60;99.90
18450;DHT22;9354;50.194;7.690;2024-02-14T07:17:47;7.60;99.90
18450;DHT22;9354;50.194;7.690;2024-02-14T07:20:15;7.70;99.90
18450;DHT22;9354;50.194;7.690;2024-02-14T07:22:43;7.70;99.90
18450;DHT22;9354;50.194;7.690;2024-02-14T07:25:12;7.70;99.90
18450;DHT22;9354;50.194;7.690;2024-02-14T07:27:40;7.70;99.90
18450;DHT22;9354;50.194;7.690;2024-02-14T07:30:07;7.70;99.90
18450;DHT22;9354;50.194;7.690;2024-02-14T07:32:36;7.70;99.90
18450;DHT22;9354;50.194;7.690;2024-02-14T07:35:06;7.80;99.90
18450;DHT22;9354;50.194;7.690;2024-02-14T07:37:34;7.80;99.90
18450;DHT22;9354;50.194;7.690;2024-02-14T07:40:01;7.80;99.90
18450;DHT22;9354;50.194;7.690;2024-02-14T07:42:29;7.80;99.90
18450;DHT22;9354;50.194;7.690;2024-02-14T07:44:57;7.90;99.90
18450;DHT22;9354;50.194;7.690;2024-02-14T07:47:24;7.90;99.90
18450;DHT22;9354;50.194;7.690;2024-02-14T07:49:52;7.90;99.90
18450;DHT22;9354;50.194;7.690;2024-02-14T07:52:21;7.90;99.90
18450;DHT22;9354;50.194;7.690;2024-02-14T07:54:51;8.00;99.90
18450;DHT22;9354;50.194;7.690;2024-02-14T07:57:20;8.00;99.90
18450;DHT22;9354;50.194;7.690;2024-02-14T07:59:47;8.00;99.90
18450;DHT22;9354;50.194;7.690;2024-02-14T08:02:14;8.10;99.90
18450;DHT22;9354;50.194;7.690;2024-02-14T08:04:42;8.10;99.90
18450;DHT22;9354;50.194;7.690;2024-02-14T08:07:09;8.10;99.90
18450;DHT22;9354;50.194;7.690;2024-02-14T08:09:38;8.10;99.90
18450;DHT22;9354;50.194;7.690;2024-02-14T08:12:06;8.10;99.90
18450;DHT22;9354;50.194;7.690;2024-02-14T08:14:34;8.10;99.90
18450;DHT22;9354;50.194;7.690;2024-02-14T08:17:01;8.10;99.90
18450;DHT22;9354;50.194;7.690;2024-02-14T08:19:29;8.20;99.90
18450;DHT22;9354;50.194;7.690;2024-02-14T08:21:56;8.20;99.90
18450;DHT22;9354;50.194;7.690;2024-02-14T08:24:26;8.30;99.90
18450;DHT22;9354;50.194;7.690;2024-02-14T08:26:54;8.30;99.90
18450;DHT22;9354;50.194;7.690;2024-02-14T08:29:22;8.40;99.90
18450;DHT22;9354;50.194;7.690;2024-02-14T08:31:49;8.40;99.90
18450;DHT22;9354;50.194;7.690;2024-02-14T08:34:17;8.40;99.90
18450;DHT22;9354;50.194;7.690;2024-02-14T08:36:45;8.50;99.90
18450;DHT22;9354;50.194;7.690;2024-02-14T08:39:12;8.50;99.90
18450;DHT22;9354;50.194;7.690;2024-02-14T08:41:39;8.50;99.90
18450;DHT22;9354;50.194;7.690;2024-02-14T08:44:10;8.60;99.90
18450;DHT22;9354;50.194;7.690;2024-02-14T08:46:38;8.60;99.90
18450;DHT22;9354;50.194;7.690;2024-02-14T08:49:08;8.60;99.90
18450;DHT22;9354;50.194;7.690;2024-02-14T08:51:35;8.60;99.90
18450;DHT22;9354;50.194;7.690;2024-02-14T08:54:04;8.60;99.90
18450;DHT22;9354;50.194;7.690;2024-02-14T08:56:32;8.60;99.90
18450;DHT22;9354;50.194;7.690;2024-02-14T08:59:00;8.60;99.90
18450;DHT22;9354;50.194;7.690;2024-02-14T09:01:29;8.60;99.90
18450;DHT22;9354;50.194;7.690;2024-02-14T09:03:57;8.70;99.90
18450;DHT22;9354;50.194;7.690;2024-02-14T09:06:25;8.70;99.90
18450;DHT22;9354;50.194;7.690;2024-02-14T09:08:53;8.80;99.90
18450;DHT22;9354;50.194;7.690;2024-02-14T09:11:20;8.80;99.90
18450;DHT22;9354;50.194;7.690;2024-02-14T09:13:49;8.80;99.90
18450;DHT22;9354;50.194;7.690;2024-02-14T09:16:20;8.80;99.90
18450;DHT22;9354;50.194;7.690;2024-02-14T09:18:50;8.90;99.90
18450;DHT22;9354;50.194;7.690;2024-02-14T09:21:18;8.90;99.90
18450;DHT22;9354;50.194;7.690;2024-02-14T09:23:47;8.90;99.90
18450;DHT22;9354;50.194;7.690;2024-02-14T09:26:14;8.90;99.90
18450;DHT22;9354;50.194;7.690;2024-02-14T09:28:43;8.90;99.90
18450;DHT22;9354;50.194;7.690;2024-02-14T09:31:10;8.90;99.90
18450;DHT22;9354;50.194;7.690;2024-02-14T09:33:38;8.90;99.90
18450;DHT22;9354;50.194;7.690;2024-02-14T09:36:08;8.90;99.90
18450;DHT22;9354;50.194;7.690;2024-02-14T09:38:35;8.90;99.90
18450;DHT22;9354;50.194;7.690;2024-02-14T09:41:08;8.90;99.90
18450;DHT22;9354;50.194;7.690;2024-02-14T09:43:39;8.90;99.90
18450;DHT22;9354;50.194;7.690;2024-02-14T09:46:07;8.90;99.90
18450;DHT22;9354;50.194;7.690;2024-02-14T09:48:35;9.00;99.90
18450;DHT22;9354;50.194;7.690;2024-02-14T09:51:07;9.00;99.90
18450;DHT22;9354;50.194;7.690;2024-02-14T09:53:35;9.10;99.90
18450;DHT22;9354;50.194;7.690;2024-02-14T09:56:03;9.20;99.90
18450;DHT22;9354;50.194;7.690;2024-02-14T09:58:31;9.30;99.90
18450;DHT22;9354;50.194;7.690;2024-02-14T10:00:59;9.30;99.90
18450;DHT22;9354;50.194;7.690;2024-02-14T10:03:26;9.30;99.90
18450;DHT22;9354;50.194;7.690;2024-02-14T10:05:54;9.40;99.90
18450;DHT22;9354;50.194;7.690;2024-02-14T10:08:23;9.40;99.90
18450;DHT22;9354;50.194;7.690;2024-02-14T10:10:52;9.40;99.90
18450;DHT22;9354;50.194;7.690;2024-02-14T10:13:20;9.40;99.90
18450;DHT22;9354;50.194;7.690;2024-02-14T10:15:48;9.50;99.90
18450;DHT22;9354;50.194;7.690;2024-02-14T10:18:15;9.50;99.90
18450;DHT22;9354;50.194;7.690;2024-02-14T10:20:53;9.50;99.90
18450;DHT22;9354;50.194;7.690;2024-02-14T10:23:20;9.50;99.90
18450;DHT22;9354;50.194;7.690;2024-02-14T10:25:50;9.50;99.90
18450;DHT22;9354;50.194;7.690;2024-02-14T10:28:18;9.50;99.90
18450;DHT22;9354;50.194;7.690;2024-02-14T10:30:46;9.50;99.90
18450;DHT22;9354;50.194;7.690;2024-02-14T10:33:15;9.50;99.90
18450;DHT22;9354;50.194;7.690;2024-02-14T10:35:43;9.50;99.90
18450;DHT22;9354;50.194;7.690;2024-02-14T10:38:11;9.50;99.90
18450;DHT22;9354;50.194;7.690;2024-02-14T10:40:39;9.50;99.90
18450;DHT22;9354;50.194;7.690;2024-02-14T10:43:10;9.50;99.90
18450;DHT22;9354;50.194;7.690;2024-02-14T10:45:37;9.50;99.90
18450;DHT22;9354;50.194;7.690;2024-02-14T10:48:07;9.60;99.90
18450;DHT22;9354;50.194;7.690;2024-02-14T10:50:36;9.60;99.90
18450;DHT22;9354;50.194;7.690;2024-02-14T10:53:05;9.60;99.90
18450;DHT22;9354;50.194;7.690;2024-02-14T10:55:34;9.70;99.90
18450;DHT22;9354;50.194;7.690;2024-02-14T10:58:02;9.70;99.90
18450;DHT22;9354;50.194;7.690;2024-02-14T11:00:31;9.80;99.90
18450;DHT22;9354;50.194;7.690;2024-02-14T11:02:59;9.80;99.90
18450;DHT22;9354;50.194;7.690;2024-02-14T11:05:28;9.90;99.90
18450;DHT22;9354;50.194;7.690;2024-02-14T11:07:55;9.90;99.90
18450;DHT22;9354;50.194;7.690;2024-02-14T11:10:23;10.00;99.90
18450;DHT22;9354;50.194;7.690;2024-02-14T11:12:50;10.00;99.90
18450;DHT22;9354;50.194;7.690;2024-02-14T11:15:20;10.10;99.90
18450;DHT22;9354;50.194;7.690;2024-02-14T11:17:49;10.10;99.90
18450;DHT22;9354;50.194;7.690;2024-02-14T11:20:19;10.10;99.90
18450;DHT22;9354;50.194;7.690;2024-02-14T11:22:53;10.20;99.90
18450;DHT22;9354;50.194;7.690;2024-02-14T11:25:23;10.20;99.90
18450;DHT22;9354;50.194;7.690;2024-02-14T11:27:54;10.20;99.90
18450;DHT22;9354;50.194;7.690;2024-02-14T11:30:33;10.20;99.90
18450;DHT22;9354;50.194;7.690;2024-02-14T11:33:15;10.20;99.90
18450;DHT22;9354;50.194;7.690;2024-02-14T11:35:45;10.20;99.90
18450;DHT22;9354;50.194;7.690;2024-02-14T11:38:13;10.20;99.90
18450;DHT22;9354;50.194;7.690;2024-02-14T11:40:41;10.30;99.90
18450;DHT22;9354;50.194;7.690;2024-02-14T11:43:12;10.20;99.90
18450;DHT22;9354;50.194;7.690;2024-02-14T11:45:41;10.30;99.90
18450;DHT22;9354;50.194;7.690;2024-02-14T11:48:10;10.30;99.90
18450;DHT22;9354;50.194;7.690;2024-02-14T11:50:40;10.30;99.90
18450;DHT22;9354;50.194;7.690;2024-02-14T11:53:09;10.30;99.90
18450;DHT22;9354;50.194;7.690;2024-02-14T11:55:37;10.30;99.90
18450;DHT22;9354;50.194;7.690;2024-02-14T11:58:08;10.30;99.90
18450;DHT22;9354;50.194;7.690;2024-02-14T12:00:37;10.40;99.90
18450;DHT22;9354;50.194;7.690;2024-02-14T12:03:07;10.30;99.90
18450;DHT22;9354;50.194;7.690;2024-02-14T12:05:36;10.30;99.90
18450;DHT22;9354;50.194;7.690;2024-02-14T12:08:06;10.30;99.90
18450;DHT22;9354;50.194;7.690;2024-02-14T12:10:35;10.40;99.90
18450;DHT22;9354;50.194;7.690;2024-02-14T12:13:07;10.40;99.90
18450;DHT22;9354;50.194;7.690;2024-02-14T12:15:39;10.40;99.90
18450;DHT22;9354;50.194;7.690;2024-02-14T12:18:07;10.50;99.90
18450;DHT22;9354;50.194;7.690;2024-02-14T12:20:35;10.50;99.90
18450;DHT22;9354;50.194;7.690;2024-02-14T12:23:05;10.50;99.90
18450;DHT22;9354;50.194;7.690;2024-02-14T12:25:33;10.50;99.90
18450;DHT22;9354;50.194;7.690;2024-02-14T12:28:01;10.50;99.90
18450;DHT22;9354;50.194;7.690;2024-02-14T12:30:43;10.50;99.90
18450;DHT22;9354;50.194;7.690;2024-02-14T12:33:11;10.50;99.90
18450;DHT22;9354;50.194;7.690;2024-02-14T12:35:42;10.50;99.90
18450;DHT22;9354;50.194;7.690;2024-02-14T12:38:12;10.40;99.90
18450;DHT22;9354;50.194;7.690;2024-02-14T12:40:40;10.40;99.90
18450;DHT22;9354;50.194;7.690;2024-02-14T12:43:08;10.40;99.90
18450;DHT22;9354;50.194;7.690;2024-02-14T12:45:36;10.40;99.90
18450;DHT22;9354;50.194;7.690;2024-02-14T12:48:04;10.30;99.90
18450;DHT22;9354;50.194;7.690;2024-02-14T12:50:32;10.30;99.90
18450;DHT22;9354;50.194;7.690;2024-02-14T12:53:00;10.20;99.90
18450;DHT22;9354;50.194;7.690;2024-02-14T12:55:29;10.20;99.90
18450;DHT22;9354;50.194;7.690;2024-02-14T12:57:57;10.20;99.90
18450;DHT22;9354;50.194;7.690;2024-02-14T13:00:24;10.20;99.90
18450;DHT22;9354;50.194;7.690;2024-02-14T13:02:52;10.10;99.90
18450;DHT22;9354;50.194;7.690;2024-02-14T13:05:20;10.10;99.90
18450;DHT22;9354;50.194;7.690;2024-02-14T13:07:48;10.10;99.90
18450;DHT22;9354;50.194;7.690;2024-02-14T13:10:16;10.10;99.90
18450;DHT22;9354;50.194;7.690;2024-02-14T13:12:45;10.00;99.90
18450;DHT22;9354;50.194;7.690;2024-02-14T13:15:13;10.00;99.90
18450;DHT22;9354;50.194;7.690;2024-02-14T13:17:40;10.00;99.90
18450;DHT22;9354;50.194;7.690;2024-02-14T13:20:08;9.90;99.90
18450;DHT22;9354;50.194;7.690;2024-02-14T13:22:36;9.90;99.90
18450;DHT22;9354;50.194;7.690;2024-02-14T13:25:05;9.90;99.90
18450;DHT22;9354;50.194;7.690;2024-02-14T13:27:32;9.90;99.90
18450;DHT22;9354;50.194;7.690;2024-02-14T13:30:02;9.90;99.90
18450;DHT22;9354;50.194;7.690;2024-02-14T13:32:29;9.90;99.90
18450;DHT22;9354;50.194;7.690;2024-02-14T13:34:57;9.80;99.90
18450;DHT22;9354;50.194;7.690;2024-02-14T13:37:24;9.90;99.90
18450;DHT22;9354;50.194;7.690;2024-02-14T13:39:52;9.90;99.90
18450;DHT22;9354;50.194;7.690;2024-02-14T13:42:19;9.90;99.90
18450;DHT22;9354;50.194;7.690;2024-02-14T13:44:48;9.90;99.90
18450;DHT22;9354;50.194;7.690;2024-02-14T13:47:18;9.80;99.90
18450;DHT22;9354;50.194;7.690;2024-02-14T13:49:45;9.90;99.90
18450;DHT22;9354;50.194;7.690;2024-02-14T13:52:13;9.90;99.90
18450;DHT22;9354;50.194;7.690;2024-02-14T13:54:41;9.90;99.90
18450;DHT22;9354;50.194;7.690;2024-02-14T13:57:09;9.90;99.90
18450;DHT22;9354;50.194;7.690;2024-02-14T13:59:37;9.90;99.90
18450;DHT22;9354;50.194;7.690;2024-02-14T14:02:05;9.90;99.90
18450;DHT22;9354;50.194;7.690;2024-02-14T14:04:34;9.90;99.90
18450;DHT22;9354;50.194;7.690;2024-02-14T14:07:02;9.90;99.90
18450;DHT22;9354;50.194;7.690;2024-02-14T14:09:30;9.90;99.90
18450;DHT22;9354;50.194;7.690;2024-02-14T14:11:58;9.90;99.90
18450;DHT22;9354;50.194;7.690;2024-02-14T14:14:26;9.90;99.90
18450;DHT22;9354;50.194;7.690;2024-02-14T14:16:55;9.90;99.90
18450;DHT22;9354;50.194;7.690;2024-02-14T14:19:23;9.90;99.90
18450;DHT22;9354;50.194;7.690;2024-02-14T14:21:52;9.90;99.90
18450;DHT22;9354;50.194;7.690;2024-02-14T14:24:20;9.90;99.90
18450;DHT22;9354;50.194;7.690;2024-02-14T14:26:49;9.90;99.90
18450;DHT22;9354;50.194;7.690;2024-02-14T14:29:17;9.90;99.90
18450;DHT22;9354;50.194;7.690;2024-02-14T14:31:44;9.90;99.90
18450;DHT22;9354;50.194;7.690;2024-02-14T14:34:12;9.90;99.90
18450;DHT22;9354;50.194;7.690;2024-02-14T14:36:39;9.90;99.90
18450;DHT22;9354;50.194;7.690;2024-02-14T14:39:08;9.80;99.90
18450;DHT22;9354;50.194;7.690;2024-02-14T14:41:37;9.80;99.90
18450;DHT22;9354;50.194;7.690;2024-02-14T14:44:04;9.80;99.90
18450;DHT22;9354;50.194;7.690;2024-02-14T14:46:32;9.80;99.90
18450;DHT22;9354;50.194;7.690;2024-02-14T14:49:01;9.70;99.90
18450;DHT22;9354;50.194;7.690;2024-02-14T14:51:29;9.70;99.90
18450;DHT22;9354;50.194;7.690;2024-02-14T14:53:57;9.70;99.90
18450;DHT22;9354;50.194;7.690;2024-02-14T14:56:27;9.70;99.90
18450;DHT22;9354;50.194;7.690;2024-02-14T14:58:55;9.70;99.90
18450;DHT22;9354;50.194;7.690;2024-02-14T15:01:25;9.70;99.90
18450;DHT22;9354;50.194;7.690;2024-02-14T15:03:53;9.70;99.90
18450;DHT22;9354;50.194;7.690;2024-02-14T15:06:21;9.70;99.90
18450;DHT22;9354;50.194;7.690;2024-02-14T15:08:48;9.70;99.90
18450;DHT22;9354;50.194;7.690;2024-02-14T15:11:16;9.70;99.90
18450;DHT22;9354;50.194;7.690;2024-02-14T15:13:48;9.70;99.90
18450;DHT22;9354;50.194;7.690;2024-02-14T15:16:15;9.70;99.90
18450;DHT22;9354;50.194;7.690;2024-02-14T15:18:42;9.70;99.90
18450;DHT22;9354;50.194;7.690;2024-02-14T15:21:10;9.70;99.90
18450;DHT22;9354;50.194;7.690;2024-02-14T15:23:38;9.70;99.90
18450;DHT22;9354;50.194;7.690;2024-02-14T15:26:06;9.70;99.90
18450;DHT22;9354;50.194;7.690;2024-02-14T15:28:38;9.70;99.90
18450;DHT22;9354;50.194;7.690;2024-02-14T15:31:09;9.70;99.90
18450;DHT22;9354;50.194;7.690;2024-02-14T15:33:54;9.70;99.90
18450;DHT22;9354;50.194;7.690;2024-02-14T15:36:21;9.70;99.90
18450;DHT22;9354;50.194;7.690;2024-02-14T15:38:49;9.70;99.90
18450;DHT22;9354;50.194;7.690;2024-02-14T15:41:18;9.70;99.90
18450;DHT22;9354;50.194;7.690;2024-02-14T15:43:45;9.70;99.90
18450;DHT22;9354;50.194;7.690;2024-02-14T15:46:15;9.70;99.90
18450;DHT22;9354;50.194;7.690;2024-02-14T15:48:44;9.70;99.90
18450;DHT22;9354;50.194;7.690;2024-02-14T15:51:11;9.70;99.90
18450;DHT22;9354;50.194;7.690;2024-02-14T15:53:41;9.70;99.90
18450;DHT22;9354;50.194;7.690;2024-02-14T15:56:09;9.70;99.90
18450;DHT22;9354;50.194;7.690;2024-02-14T15:58:37;9.70;99.90
18450;DHT22;9354;50.194;7.690;2024-02-14T16:01:05;9.80;99.90
18450;DHT22;9354;50.194;7.690;2024-02-14T16:03:34;9.80;99.90
18450;DHT22;9354;50.194;7.690;2024-02-14T16:06:02;9.80;99.90